首页
METAR-TAF:

METAR-TAF

机场 :

大西洋城國際機場

大西洋城, 新泽西州, 美国

纬度: 39-27-53N, 经度: 074-35-12W, 海拔: 23米

当前天气观测

该预报发布于3小时和7分钟前的04:54 UTC
风速13节,风向西南,有时为22节阵风
温度 16°C
湿度 82%
气压 1010 hPa
能見度: 14.5公里
多云层高于1300英尺
阴天层高于2300英尺
小雨

METAR: KACY 100454Z 22013G22KT 9SM -RA BKN013 OVC023 16/13 A2982 RMK AO2 PK WND 24026/0409 RAB02 SLP097 P0003 T01560133 401560061 $

时间: 03:01 (08:01 UTC)

预报

该预报发布于2小时和16分钟前的05:45 UTC
预报有效从10日的 06点(UTC)到 11日的 06点(UTC)
风速13节,风向南转西南,有时为25节阵风
能見度: 10公里
多云层高于1300英尺
阴天层高于2300英尺
从 10日的 1300点(UTC)
风速10节,风向南转西南,有时为22节阵风
能見度: 10公里
阴天层高于2000英尺
附近有阵雨
从 10日的 1800点(UTC)
风速10节,风向西南,有时为20节阵风
能見度: 10公里
阴天层高于1000英尺
小雨
从 10日的 2000点(UTC)
风速8节,风向西
能見度: 10公里
阴天层高于1500英尺
小雨

TAF: KACY 100545Z 1006/1106 21013G25KT P6SM BKN013 OVC023 WS020/23045KT FM101300 21010G22KT P6SM VCSH OVC020 FM101800 23010G20KT P6SM -RA OVC010 FM102000 26008KT P6SM -RA OVC015

超过4000个机场的气象观测和天气预报(METAR&TAF报告)。

可查询的气象台以黄色和红色小点在地图上表示。

将鼠标移到小点上方,可查看气象台名称。

然后点击查看天气观测和预报。

如需切换地图:点击带黑十字的绿色按钮放大地图;点击带横线的绿色按钮缩小地图;或者点击绿色箭头查看邻近地区的地图。


METAR-TAF: